sensor_id;sensor_type;location;lat;lon;timestamp;pressure;altitude;pressure_sealevel;temperature;humidity
57894;BME280;43710;47.460;19.034;2024-02-21T05:00:02;101260.28;;;8.99;77.64
57894;BME280;43710;47.460;19.034;2024-02-21T05:03:06;101260.28;;;8.99;77.64
57894;BME280;43710;47.460;19.034;2024-02-21T05:06:08;101273.31;;;8.57;80.11
57894;BME280;43710;47.460;19.034;2024-02-21T05:09:10;101276.72;;;8.35;80.41
57894;BME280;43710;47.460;19.034;2024-02-21T05:12:13;101285.44;;;8.31;80.84
57894;BME280;43710;47.460;19.034;2024-02-21T05:15:16;101289.81;;;8.37;80.95
57894;BME280;43710;47.460;19.034;2024-02-21T05:18:18;101289.34;;;8.57;81.53
57894;BME280;43710;47.460;19.034;2024-02-21T05:21:23;101285.78;;;8.68;79.85
57894;BME280;43710;47.460;19.034;2024-02-21T05:24:25;101278.56;;;8.68;79.34
57894;BME280;43710;47.460;19.034;2024-02-21T05:27:28;101280.63;;;8.44;80.53
57894;BME280;43710;47.460;19.034;2024-02-21T05:30:30;101282.56;;;8.49;79.64
57894;BME280;43710;47.460;19.034;2024-02-21T05:33:34;101274.13;;;8.57;79.60
57894;BME280;43710;47.460;19.034;2024-02-21T05:36:36;101278.56;;;8.68;78.47
57894;BME280;43710;47.460;19.034;2024-02-21T05:39:38;101272.47;;;8.73;78.33
57894;BME280;43710;47.460;19.034;2024-02-21T05:42:41;101272.00;;;8.76;78.06
57894;BME280;43710;47.460;19.034;2024-02-21T05:45:43;101260.91;;;8.84;77.67
57894;BME280;43710;47.460;19.034;2024-02-21T05:48:45;101267.31;;;8.66;79.13
57894;BME280;43710;47.460;19.034;2024-02-21T05:51:48;101270.16;;;8.43;79.17
57894;BME280;43710;47.460;19.034;2024-02-21T05:54:51;101267.09;;;8.51;80.68
57894;BME280;43710;47.460;19.034;2024-02-21T05:57:54;101280.94;;;8.65;78.68
57894;BME280;43710;47.460;19.034;2024-02-21T06:00:57;101281.31;;;8.74;77.57
57894;BME280;43710;47.460;19.034;2024-02-21T06:03:59;101283.03;;;8.63;77.88
57894;BME280;43710;47.460;19.034;2024-02-21T06:07:02;101294.63;;;8.68;78.57
57894;BME280;43710;47.460;19.034;2024-02-21T06:10:05;101290.47;;;8.61;77.85
57894;BME280;43710;47.460;19.034;2024-02-21T06:13:07;101294.16;;;8.55;77.93
57894;BME280;43710;47.460;19.034;2024-02-21T06:16:11;101293.38;;;8.76;77.09
57894;BME280;43710;47.460;19.034;2024-02-21T06:19:14;101280.81;;;8.77;79.57
57894;BME280;43710;47.460;19.034;2024-02-21T06:22:16;101290.38;;;8.73;77.48
57894;BME280;43710;47.460;19.034;2024-02-21T06:25:21;101294.41;;;8.92;86.98
57894;BME280;43710;47.460;19.034;2024-02-21T06:28:24;101292.56;;;9.36;100.00
57894;BME280;43710;47.460;19.034;2024-02-21T06:31:27;101296.69;;;9.22;94.60
57894;BME280;43710;47.460;19.034;2024-02-21T06:34:31;101295.25;;;9.36;100.00
57894;BME280;43710;47.460;19.034;2024-02-21T06:37:36;101305.28;;;9.24;87.99
57894;BME280;43710;47.460;19.034;2024-02-21T06:40:40;101298.13;;;9.08;84.61
57894;BME280;43710;47.460;19.034;2024-02-21T06:43:42;101288.25;;;8.91;87.57
57894;BME280;43710;47.460;19.034;2024-02-21T06:46:45;101293.03;;;8.89;82.14
57894;BME280;43710;47.460;19.034;2024-02-21T06:49:50;101298.69;;;8.93;81.28
57894;BME280;43710;47.460;19.034;2024-02-21T06:52:53;101289.28;;;9.07;83.29
57894;BME280;43710;47.460;19.034;2024-02-21T06:55:56;101294.63;;;9.29;95.90
57894;BME280;43710;47.460;19.034;2024-02-21T06:59:00;101300.53;;;9.53;96.88
57894;BME280;43710;47.460;19.034;2024-02-21T07:02:02;101304.56;;;9.78;100.00
57894;BME280;43710;47.460;19.034;2024-02-21T07:05:05;101301.47;;;9.91;94.00
57894;BME280;43710;47.460;19.034;2024-02-21T07:08:08;101292.66;;;9.96;95.70
57894;BME280;43710;47.460;19.034;2024-02-21T07:11:10;101313.19;;;10.12;98.68
57894;BME280;43710;47.460;19.034;2024-02-21T07:14:17;101308.22;;;9.99;93.07
57894;BME280;43710;47.460;19.034;2024-02-21T07:17:20;101313.16;;;10.07;81.29
57894;BME280;43710;47.460;19.034;2024-02-21T07:20:24;101325.28;;;9.87;76.03
57894;BME280;43710;47.460;19.034;2024-02-21T07:23:27;101315.16;;;9.95;76.25
57894;BME280;43710;47.460;19.034;2024-02-21T07:26:31;101325.81;;;9.89;74.49
57894;BME280;43710;47.460;19.034;2024-02-21T07:29:33;101334.34;;;9.86;74.03
57894;BME280;43710;47.460;19.034;2024-02-21T07:32:36;101332.00;;;9.90;72.91
57894;BME280;43710;47.460;19.034;2024-02-21T07:35:38;101332.63;;;9.75;76.38
57894;BME280;43710;47.460;19.034;2024-02-21T07:38:42;101331.94;;;10.12;88.66
57894;BME280;43710;47.460;19.034;2024-02-21T07:41:45;101341.38;;;9.93;75.55
57894;BME280;43710;47.460;19.034;2024-02-21T07:44:50;101341.78;;;9.79;75.87
57894;BME280;43710;47.460;19.034;2024-02-21T07:47:52;101339.44;;;9.61;75.55
57894;BME280;43710;47.460;19.034;2024-02-21T07:50:54;101340.81;;;9.63;75.43
57894;BME280;43710;47.460;19.034;2024-02-21T07:53:57;101338.56;;;9.55;76.00
57894;BME280;43710;47.460;19.034;2024-02-21T07:56:59;101344.84;;;9.66;75.39
57894;BME280;43710;47.460;19.034;2024-02-21T08:00:03;101342.09;;;9.83;73.98
57894;BME280;43710;47.460;19.034;2024-02-21T08:03:13;101335.37;;;9.80;72.51
57894;BME280;43710;47.460;19.034;2024-02-21T08:06:17;101334.00;;;10.05;75.57
57894;BME280;43710;47.460;19.034;2024-02-21T08:09:20;101337.47;;;10.27;72.06
57894;BME280;43710;47.460;19.034;2024-02-21T08:12:22;101328.66;;;10.32;70.10
57894;BME280;43710;47.460;19.034;2024-02-21T08:15:24;101331.81;;;10.56;71.74
57894;BME280;43710;47.460;19.034;2024-02-21T08:18:30;101320.75;;;10.85;85.98
57894;BME280;43710;47.460;19.034;2024-02-21T08:21:33;101328.16;;;11.10;92.23
57894;BME280;43710;47.460;19.034;2024-02-21T08:24:36;101329.47;;;11.07;70.68
57894;BME280;43710;47.460;19.034;2024-02-21T08:27:38;101318.34;;;10.88;69.01
57894;BME280;43710;47.460;19.034;2024-02-21T08:30:40;101327.19;;;10.89;70.61
57894;BME280;43710;47.460;19.034;2024-02-21T08:33:46;101326.72;;;10.97;69.21
57894;BME280;43710;47.460;19.034;2024-02-21T08:36:50;101333.25;;;11.11;68.55
57894;BME280;43710;47.460;19.034;2024-02-21T08:39:52;101334.34;;;11.15;80.42
57894;BME280;43710;47.460;19.034;2024-02-21T08:42:54;101332.22;;;11.17;68.58
57894;BME280;43710;47.460;19.034;2024-02-21T08:45:57;101332.06;;;11.39;70.00
57894;BME280;43710;47.460;19.034;2024-02-21T08:48:59;101330.41;;;11.33;67.41
57894;BME280;43710;47.460;19.034;2024-02-21T08:52:02;101330.97;;;11.45;69.50
57894;BME280;43710;47.460;19.034;2024-02-21T08:55:06;101333.13;;;11.43;65.45
57894;BME280;43710;47.460;19.034;2024-02-21T08:58:08;101329.00;;;11.25;65.01
57894;BME280;43710;47.460;19.034;2024-02-21T09:01:11;101322.50;;;11.11;67.02
57894;BME280;43710;47.460;19.034;2024-02-21T09:04:13;101325.47;;;11.15;64.59
57894;BME280;43710;47.460;19.034;2024-02-21T09:07:16;101325.19;;;11.06;68.89
57894;BME280;43710;47.460;19.034;2024-02-21T09:10:18;101325.19;;;11.06;65.30
57894;BME280;43710;47.460;19.034;2024-02-21T09:13:21;101322.50;;;11.06;66.08
57894;BME280;43710;47.460;19.034;2024-02-21T09:16:23;101323.59;;;11.15;68.15
57894;BME280;43710;47.460;19.034;2024-02-21T09:19:26;101323.12;;;11.23;68.63
57894;BME280;43710;47.460;19.034;2024-02-21T09:22:29;101314.78;;;11.20;67.70
57894;BME280;43710;47.460;19.034;2024-02-21T09:25:31;101323.44;;;11.37;69.29
57894;BME280;43710;47.460;19.034;2024-02-21T09:28:34;101312.50;;;11.49;67.39
57894;BME280;43710;47.460;19.034;2024-02-21T09:31:37;101304.47;;;11.59;67.30
57894;BME280;43710;47.460;19.034;2024-02-21T09:34:40;101303.63;;;11.59;69.68
57894;BME280;43710;47.460;19.034;2024-02-21T09:37:43;101311.19;;;11.72;65.89
57894;BME280;43710;47.460;19.034;2024-02-21T09:40:45;101310.91;;;11.63;63.87
57894;BME280;43710;47.460;19.034;2024-02-21T09:43:49;101312.25;;;11.61;63.22
57894;BME280;43710;47.460;19.034;2024-02-21T09:47:04;101308.22;;;11.63;64.15
57894;BME280;43710;47.460;19.034;2024-02-21T09:50:09;101305.91;;;11.87;64.20
57894;BME280;43710;47.460;19.034;2024-02-21T09:53:12;101311.28;;;11.97;64.16
57894;BME280;43710;47.460;19.034;2024-02-21T09:56:18;101304.56;;;11.90;62.32
57894;BME280;43710;47.460;19.034;2024-02-21T09:59:20;101302.63;;;11.80;62.27
57894;BME280;43710;47.460;19.034;2024-02-21T10:02:23;101311.56;;;11.86;64.36
57894;BME280;43710;47.460;19.034;2024-02-21T10:05:26;101309.91;;;11.85;62.72
57894;BME280;43710;47.460;19.034;2024-02-21T10:08:29;101302.16;;;12.04;62.42
57894;BME280;43710;47.460;19.034;2024-02-21T10:11:32;101287.84;;;11.77;61.45
57894;BME280;43710;47.460;19.034;2024-02-21T10:14:38;101292.13;;;11.79;62.99
57894;BME280;43710;47.460;19.034;2024-02-21T10:17:41;101291.91;;;11.85;67.86
57894;BME280;43710;47.460;19.034;2024-02-21T10:20:43;101290.31;;;11.84;64.82
57894;BME280;43710;47.460;19.034;2024-02-21T10:23:48;101294.37;;;11.97;62.67
57894;BME280;43710;47.460;19.034;2024-02-21T10:27:01;101290.87;;;11.96;67.93
57894;BME280;43710;47.460;19.034;2024-02-21T10:30:07;101285.47;;;12.02;64.95
57894;BME280;43710;47.460;19.034;2024-02-21T10:33:15;101282.53;;;12.18;77.28
57894;BME280;43710;47.460;19.034;2024-02-21T10:36:19;101278.25;;;12.22;63.07
57894;BME280;43710;47.460;19.034;2024-02-21T10:39:21;101270.19;;;12.22;61.68
57894;BME280;43710;47.460;19.034;2024-02-21T10:42:28;101277.44;;;12.17;60.99
57894;BME280;43710;47.460;19.034;2024-02-21T10:45:34;101266.69;;;12.12;62.58
57894;BME280;43710;47.460;19.034;2024-02-21T10:48:42;101259.69;;;12.01;62.67
57894;BME280;43710;47.460;19.034;2024-02-21T10:51:45;101255.66;;;12.18;64.01
57894;BME280;43710;47.460;19.034;2024-02-21T10:54:55;101250.28;;;12.08;61.45
57894;BME280;43710;47.460;19.034;2024-02-21T10:57:59;101248.97;;;12.06;61.14
57894;BME280;43710;47.460;19.034;2024-02-21T11:01:03;101240.87;;;12.11;61.81
57894;BME280;43710;47.460;19.034;2024-02-21T11:04:08;101237.37;;;12.05;62.29
57894;BME280;43710;47.460;19.034;2024-02-21T11:07:13;101238.22;;;12.06;61.94
57894;BME280;43710;47.460;19.034;2024-02-21T11:10:26;101229.31;;;12.20;63.10
57894;BME280;43710;47.460;19.034;2024-02-21T11:13:35;101217.75;;;12.40;65.33
57894;BME280;43710;47.460;19.034;2024-02-21T11:16:38;101209.69;;;12.35;62.21
57894;BME280;43710;47.460;19.034;2024-02-21T11:19:42;101193.47;;;12.61;61.57
57894;BME280;43710;47.460;19.034;2024-02-21T11:22:45;101191.62;;;12.56;59.34
57894;BME280;43710;47.460;19.034;2024-02-21T11:25:47;101183.81;;;12.60;58.94
57894;BME280;43710;47.460;19.034;2024-02-21T11:28:59;101183.22;;;12.68;59.71
57894;BME280;43710;47.460;19.034;2024-02-21T11:32:05;101186.59;;;13.04;66.68
57894;BME280;43710;47.460;19.034;2024-02-21T11:35:19;101182.59;;;12.97;60.21
57894;BME280;43710;47.460;19.034;2024-02-21T11:38:22;101180.69;;;12.97;59.08
57894;BME280;43710;47.460;19.034;2024-02-21T11:41:25;101168.34;;;12.91;57.02
57894;BME280;43710;47.460;19.034;2024-02-21T11:44:27;101172.94;;;12.90;56.22
57894;BME280;43710;47.460;19.034;2024-02-21T11:47:29;101178.91;;;12.77;55.92
57894;BME280;43710;47.460;19.034;2024-02-21T11:50:36;101180.03;;;12.61;56.94
57894;BME280;43710;47.460;19.034;2024-02-21T11:53:38;101177.31;;;12.76;58.28
57894;BME280;43710;47.460;19.034;2024-02-21T11:56:52;101162.16;;;12.96;57.73
57894;BME280;43710;47.460;19.034;2024-02-21T11:59:54;101165.59;;;13.01;59.92
57894;BME280;43710;47.460;19.034;2024-02-21T12:03:01;101159.16;;;12.97;56.38
57894;BME280;43710;47.460;19.034;2024-02-21T12:06:06;101163.25;;;12.84;57.87
57894;BME280;43710;47.460;19.034;2024-02-21T12:09:09;101158.97;;;12.83;56.83
57894;BME280;43710;47.460;19.034;2024-02-21T12:12:12;101158.22;;;12.67;57.27
57894;BME280;43710;47.460;19.034;2024-02-21T12:15:14;101148.03;;;12.59;57.46
57894;BME280;43710;47.460;19.034;2024-02-21T12:18:18;101140.53;;;12.56;57.00
57894;BME280;43710;47.460;19.034;2024-02-21T12:21:24;101150.47;;;12.56;57.17
57894;BME280;43710;47.460;19.034;2024-02-21T12:24:27;101147.50;;;12.57;58.98
57894;BME280;43710;47.460;19.034;2024-02-21T12:27:30;101144.81;;;12.57;55.38
57894;BME280;43710;47.460;19.034;2024-02-21T12:30:33;101136.16;;;12.70;54.60
57894;BME280;43710;47.460;19.034;2024-02-21T12:33:37;101137.78;;;12.66;55.07
57894;BME280;43710;47.460;19.034;2024-02-21T12:36:44;101137.28;;;12.54;55.11
57894;BME280;43710;47.460;19.034;2024-02-21T12:39:49;101136.94;;;12.71;55.81
57894;BME280;43710;47.460;19.034;2024-02-21T12:42:51;101133.72;;;12.74;56.54
57894;BME280;43710;47.460;19.034;2024-02-21T12:45:54;101125.94;;;12.67;54.18
57894;BME280;43710;47.460;19.034;2024-02-21T12:48:57;101118.97;;;12.66;54.95
57894;BME280;43710;47.460;19.034;2024-02-21T12:51:59;101109.75;;;12.83;55.18
57894;BME280;43710;47.460;19.034;2024-02-21T12:55:02;101103.56;;;12.77;53.85
57894;BME280;43710;47.460;19.034;2024-02-21T12:58:04;101108.13;;;12.82;55.16
57894;BME280;43710;47.460;19.034;2024-02-21T13:01:09;101105.69;;;12.85;55.68
57894;BME280;43710;47.460;19.034;2024-02-21T13:04:11;101099.50;;;12.85;54.76
57894;BME280;43710;47.460;19.034;2024-02-21T13:07:14;101098.19;;;12.82;54.34
57894;BME280;43710;47.460;19.034;2024-02-21T13:10:16;101091.44;;;12.85;55.10
57894;BME280;43710;47.460;19.034;2024-02-21T13:13:20;101085.78;;;12.81;54.56
57894;BME280;43710;47.460;19.034;2024-02-21T13:16:23;101092.25;;;12.80;54.67
57894;BME280;43710;47.460;19.034;2024-02-21T13:19:25;101092.25;;;12.85;53.20
57894;BME280;43710;47.460;19.034;2024-02-21T13:22:28;101085.53;;;12.78;52.09
57894;BME280;43710;47.460;19.034;2024-02-21T13:25:30;101086.62;;;12.82;54.34
57894;BME280;43710;47.460;19.034;2024-02-21T13:28:32;101083.63;;;12.88;53.00
57894;BME280;43710;47.460;19.034;2024-02-21T13:31:35;101068.53;;;12.87;55.36
57894;BME280;43710;47.460;19.034;2024-02-21T13:34:37;101061.72;;;13.00;54.72
57894;BME280;43710;47.460;19.034;2024-02-21T13:37:40;101062.53;;;13.01;60.92
57894;BME280;43710;47.460;19.034;2024-02-21T13:40:43;101059.56;;;13.02;55.77
57894;BME280;43710;47.460;19.034;2024-02-21T13:43:46;101058.25;;;12.94;53.64
57894;BME280;43710;47.460;19.034;2024-02-21T13:46:48;101052.62;;;12.91;54.91
57894;BME280;43710;47.460;19.034;2024-02-21T13:49:51;101053.47;;;12.86;60.32
57894;BME280;43710;47.460;19.034;2024-02-21T13:52:54;101058.62;;;12.78;54.23
57894;BME280;43710;47.460;19.034;2024-02-21T13:55:56;101053.81;;;12.75;54.71
57894;BME280;43710;47.460;19.034;2024-02-21T13:58:59;101039.31;;;12.70;55.10
57894;BME280;43710;47.460;19.034;2024-02-21T14:02:02;101040.09;;;12.71;55.40
57894;BME280;43710;47.460;19.034;2024-02-21T14:05:05;101035.81;;;12.70;54.80
57894;BME280;43710;47.460;19.034;2024-02-21T14:08:08;101045.53;;;12.66;54.69
57894;BME280;43710;47.460;19.034;2024-02-21T14:11:11;101038.56;;;12.65;55.37
57894;BME280;43710;47.460;19.034;2024-02-21T14:14:13;101038.81;;;12.63;57.00
57894;BME280;43710;47.460;19.034;2024-02-21T14:17:18;101041.19;;;12.75;54.31
57894;BME280;43710;47.460;19.034;2024-02-21T14:20:20;101042.53;;;12.73;53.95
57894;BME280;43710;47.460;19.034;2024-02-21T14:23:23;101044.94;;;12.74;53.16
57894;BME280;43710;47.460;19.034;2024-02-21T14:26:25;101035.50;;;12.77;53.61
57894;BME280;43710;47.460;19.034;2024-02-21T14:29:27;101035.28;;;12.68;51.99
57894;BME280;43710;47.460;19.034;2024-02-21T14:32:30;101034.78;;;12.61;53.17
57894;BME280;43710;47.460;19.034;2024-02-21T14:35:33;101041.19;;;12.70;52.59
57894;BME280;43710;47.460;19.034;2024-02-21T14:38:36;101027.25;;;12.63;53.67
57894;BME280;43710;47.460;19.034;2024-02-21T14:41:38;101030.66;;;12.79;52.82
57894;BME280;43710;47.460;19.034;2024-02-21T14:44:41;101028.47;;;12.86;53.38
57894;BME280;43710;47.460;19.034;2024-02-21T14:47:44;101022.00;;;12.87;51.83
57894;BME280;43710;47.460;19.034;2024-02-21T14:50:46;101026.63;;;12.76;51.34
57894;BME280;43710;47.460;19.034;2024-02-21T14:53:48;101028.59;;;12.65;52.00
57894;BME280;43710;47.460;19.034;2024-02-21T14:56:50;101019.66;;;12.75;54.12
57894;BME280;43710;47.460;19.034;2024-02-21T14:59:53;101018.81;;;12.80;52.74
57894;BME280;43710;47.460;19.034;2024-02-21T15:02:58;101022.78;;;12.87;52.11
57894;BME280;43710;47.460;19.034;2024-02-21T15:06:02;101011.19;;;12.92;51.19
57894;BME280;43710;47.460;19.034;2024-02-21T15:09:04;101006.31;;;12.94;51.33
57894;BME280;43710;47.460;19.034;2024-02-21T15:12:08;101011.75;;;12.89;52.26
57894;BME280;43710;47.460;19.034;2024-02-21T15:15:10;101000.38;;;12.97;61.82
57894;BME280;43710;47.460;19.034;2024-02-21T15:18:14;100999.09;;;12.89;53.20
57894;BME280;43710;47.460;19.034;2024-02-21T15:21:19;101003.41;;;12.90;51.57
57894;BME280;43710;47.460;19.034;2024-02-21T15:24:21;100997.75;;;12.92;52.07
57894;BME280;43710;47.460;19.034;2024-02-21T15:27:24;101002.81;;;12.99;53.76
57894;BME280;43710;47.460;19.034;2024-02-21T15:30:28;101005.53;;;12.93;53.53
57894;BME280;43710;47.460;19.034;2024-02-21T15:33:33;101006.13;;;12.85;53.28
57894;BME280;43710;47.460;19.034;2024-02-21T15:36:41;101006.31;;;12.99;58.93
57894;BME280;43710;47.460;19.034;2024-02-21T15:39:44;100995.81;;;12.98;52.16
57894;BME280;43710;47.460;19.034;2024-02-21T15:42:46;100996.91;;;12.97;52.96
57894;BME280;43710;47.460;19.034;2024-02-21T15:45:49;100992.84;;;12.99;56.73
57894;BME280;43710;47.460;19.034;2024-02-21T15:48:51;100983.56;;;13.15;70.47
57894;BME280;43710;47.460;19.034;2024-02-21T15:51:56;100983.03;;;13.13;59.50
57894;BME280;43710;47.460;19.034;2024-02-21T15:54:59;100989.03;;;13.05;54.09
57894;BME280;43710;47.460;19.034;2024-02-21T15:58:01;100994.19;;;13.02;53.23
57894;BME280;43710;47.460;19.034;2024-02-21T16:01:06;100991.19;;;13.03;58.67
57894;BME280;43710;47.460;19.034;2024-02-21T16:04:09;100982.59;;;13.01;55.84
57894;BME280;43710;47.460;19.034;2024-02-21T16:07:11;100985.34;;;12.96;59.56
57894;BME280;43710;47.460;19.034;2024-02-21T16:10:14;100988.03;;;12.91;60.11
57894;BME280;43710;47.460;19.034;2024-02-21T16:13:16;100988.66;;;12.83;59.30
57894;BME280;43710;47.460;19.034;2024-02-21T16:16:18;100979.87;;;12.67;65.78
57894;BME280;43710;47.460;19.034;2024-02-21T16:19:21;100984.47;;;12.66;69.94
57894;BME280;43710;47.460;19.034;2024-02-21T16:22:26;100979.16;;;12.56;65.42
57894;BME280;43710;47.460;19.034;2024-02-21T16:25:29;100981.84;;;12.51;61.81
57894;BME280;43710;47.460;19.034;2024-02-21T16:28:31;100992.66;;;12.46;56.83
57894;BME280;43710;47.460;19.034;2024-02-21T16:31:34;100992.09;;;12.49;57.92
57894;BME280;43710;47.460;19.034;2024-02-21T16:34:40;100988.88;;;12.52;72.94
57894;BME280;43710;47.460;19.034;2024-02-21T16:37:42;100989.66;;;12.53;58.44
57894;BME280;43710;47.460;19.034;2024-02-21T16:40:45;100978.09;;;12.52;61.32
57894;BME280;43710;47.460;19.034;2024-02-21T16:43:47;100982.41;;;12.53;56.43
57894;BME280;43710;47.460;19.034;2024-02-21T16:46:52;100984.53;;;12.51;56.07
57894;BME280;43710;47.460;19.034;2024-02-21T16:49:55;100986.19;;;12.52;55.17
57894;BME280;43710;47.460;19.034;2024-02-21T16:52:57;100985.38;;;12.52;55.83
